createdAt,value
2019-02-25T00:00:07.116Z,26
2019-02-25T00:01:09.543Z,26
2019-02-25T00:02:11.973Z,25.8
2019-02-25T00:03:13.832Z,25.8
2019-02-25T00:04:15.719Z,26.1
2019-02-25T00:05:17.884Z,25.9
2019-02-25T00:06:20.050Z,26.3
2019-02-25T00:07:22.485Z,26.2
2019-02-25T00:08:24.931Z,26.1
2019-02-25T00:09:27.366Z,26
2019-02-25T00:10:29.511Z,26
2019-02-25T00:11:31.663Z,26.3
2019-02-25T00:12:34.138Z,26
2019-02-25T00:13:36.305Z,26.2
2019-02-25T00:14:38.737Z,26.3
2019-02-25T00:15:40.875Z,25.9
2019-02-25T00:16:43.004Z,25.7
2019-02-25T00:17:45.447Z,25.9
2019-02-25T00:18:47.590Z,26.1
2019-02-25T00:19:50.035Z,26.1
2019-02-25T00:20:52.193Z,25.9
2019-02-25T00:21:54.620Z,25.9
2019-02-25T00:22:57.051Z,26
2019-02-25T00:23:59.488Z,26.1
2019-02-25T00:25:01.665Z,25.8
2019-02-25T00:26:04.101Z,25.9
2019-02-25T00:27:06.283Z,25.9
2019-02-25T00:28:08.426Z,26.1
2019-02-25T00:29:10.613Z,26.2
2019-02-25T00:30:13.037Z,26.5
2019-02-25T00:31:15.515Z,26.4
2019-02-25T00:32:17.690Z,25.8
2019-02-25T00:33:20.118Z,26.2
2019-02-25T00:34:22.010Z,25.8
2019-02-25T00:35:24.434Z,26
2019-02-25T00:36:26.563Z,26
2019-02-25T00:37:28.987Z,26.1
2019-02-25T00:38:30.862Z,26.1
2019-02-25T00:39:33.008Z,25.8
2019-02-25T00:40:35.434Z,26.1
2019-02-25T00:41:37.866Z,26.2
2019-02-25T00:42:40.033Z,26.1
2019-02-25T00:43:41.925Z,26.3
2019-02-25T00:44:44.351Z,26.2
2019-02-25T00:45:46.787Z,26.3
2019-02-25T00:46:49.217Z,26.3
2019-02-25T00:47:51.633Z,26.4
2019-02-25T00:48:54.066Z,26.4
2019-02-25T00:49:56.500Z,26.2
2019-02-25T00:50:58.647Z,26.2
2019-02-25T00:52:00.813Z,26.3
2019-02-25T00:53:02.955Z,26.1
2019-02-25T00:54:05.115Z,25.9
2019-02-25T00:55:07.583Z,26
2019-02-25T00:56:10.025Z,26.4
2019-02-25T00:57:12.445Z,26
2019-02-25T00:58:14.603Z,25.9
2019-02-25T00:59:16.747Z,26.4
2019-02-25T01:00:19.223Z,26
2019-02-25T01:01:21.651Z,26.2
2019-02-25T01:02:23.804Z,26.3
2019-02-25T01:03:25.679Z,26.5
2019-02-25T01:04:27.831Z,26.3
2019-02-25T01:05:30.266Z,26.2
2019-02-25T01:06:32.687Z,26.4
2019-02-25T01:07:35.115Z,26.4
2019-02-25T01:08:37.246Z,26.5
2019-02-25T01:09:39.383Z,26.5
2019-02-25T01:10:41.805Z,26.5
2019-02-25T01:11:44.255Z,26.4
2019-02-25T01:12:46.418Z,26.6
2019-02-25T01:13:48.847Z,26.6
2019-02-25T01:14:51.039Z,26.6
2019-02-25T01:15:53.465Z,26.5
2019-02-25T01:16:55.619Z,26.5
2019-02-25T01:17:59.930Z,26.5
2019-02-25T01:19:01.853Z,26.6
2019-02-25T01:20:04.281Z,26.6
2019-02-25T01:21:06.451Z,26.6
2019-02-25T01:22:08.342Z,26.6
2019-02-25T01:23:10.766Z,26.6
2019-02-25T01:24:13.201Z,26.7
2019-02-25T01:25:15.375Z,26.6
2019-02-25T01:26:17.527Z,26.6
2019-02-25T01:27:19.957Z,26.5
2019-02-25T01:28:22.375Z,26.6
2019-02-25T01:29:24.804Z,26.5
2019-02-25T01:30:27.229Z,26.7
2019-02-25T01:31:29.384Z,26.6
2019-02-25T01:32:31.817Z,26.6
2019-02-25T01:33:34.253Z,26.7
2019-02-25T01:34:36.679Z,26.6
2019-02-25T01:35:39.099Z,26.8
2019-02-25T01:36:40.985Z,26.7
2019-02-25T01:37:43.415Z,26.7
2019-02-25T01:38:45.293Z,26.7
2019-02-25T01:39:47.443Z,26.7
2019-02-25T01:40:49.894Z,26.7
2019-02-25T01:41:52.053Z,26.6
2019-02-25T01:42:53.934Z,26.7
2019-02-25T01:43:56.353Z,26.7
2019-02-25T01:44:58.782Z,26.6
2019-02-25T01:46:00.936Z,26.8
2019-02-25T01:47:03.075Z,26.7
2019-02-25T01:48:05.211Z,26.6
2019-02-25T01:49:07.644Z,26.7
2019-02-25T01:50:10.067Z,26.6
2019-02-25T01:51:12.230Z,27.1
2019-02-25T01:52:14.384Z,26.9
2019-02-25T01:53:16.802Z,26.6
2019-02-25T01:54:19.232Z,26.7
2019-02-25T01:55:21.373Z,27
2019-02-25T01:56:23.803Z,26.6
2019-02-25T01:57:25.665Z,26.6
2019-02-25T01:58:27.509Z,26.7
2019-02-25T01:59:29.402Z,26.7
2019-02-25T02:00:31.290Z,26.9
2019-02-25T02:01:33.420Z,26.8
2019-02-25T02:02:35.319Z,26.7
2019-02-25T02:03:37.486Z,26.6
2019-02-25T02:04:39.914Z,26.8
2019-02-25T02:05:42.088Z,26.9
2019-02-25T02:06:44.249Z,26.9
2019-02-25T02:07:46.407Z,26.7
2019-02-25T02:08:48.572Z,26.9
2019-02-25T02:09:51.001Z,26.8
2019-02-25T02:10:53.139Z,26.9
2019-02-25T02:11:54.751Z,26.8
2019-02-25T02:12:56.900Z,27
2019-02-25T02:13:59.049Z,26.9
2019-02-25T02:15:01.221Z,26.8
2019-02-25T02:16:03.688Z,27
2019-02-25T02:17:06.121Z,26.8
2019-02-25T02:18:08.280Z,27
2019-02-25T02:19:10.712Z,26.8
2019-02-25T02:20:12.861Z,27
2019-02-25T02:21:14.999Z,26.8
2019-02-25T02:22:17.427Z,27
2019-02-25T02:23:19.328Z,27
2019-02-25T02:24:21.491Z,27
2019-02-25T02:25:23.678Z,26.9
2019-02-25T02:26:25.579Z,26.9
2019-02-25T02:27:27.712Z,26.7
2019-02-25T02:28:30.138Z,26.8
2019-02-25T02:29:32.299Z,26.9
2019-02-25T02:30:34.728Z,26.7
2019-02-25T02:31:36.879Z,26.8
2019-02-25T02:32:38.736Z,27
2019-02-25T02:33:40.898Z,26.6
2019-02-25T02:34:43.333Z,27
2019-02-25T02:35:45.195Z,26.8
2019-02-25T02:36:47.351Z,26.8
2019-02-25T02:37:49.499Z,26.8
2019-02-25T02:38:51.941Z,26.8
2019-02-25T02:39:53.845Z,26.8
2019-02-25T02:40:55.764Z,26.8
2019-02-25T02:41:57.935Z,26.9
2019-02-25T02:43:00.353Z,26.8
2019-02-25T02:44:02.508Z,27.1
2019-02-25T02:45:04.951Z,27.1
2019-02-25T02:46:07.381Z,26.8
2019-02-25T02:47:09.890Z,26.9
2019-02-25T02:48:11.781Z,27
2019-02-25T02:49:14.198Z,27.1
2019-02-25T02:50:16.148Z,27
2019-02-25T02:51:18.577Z,27
2019-02-25T02:52:21.032Z,26.9
2019-02-25T02:53:23.185Z,26.8
2019-02-25T02:54:25.336Z,26.8
2019-02-25T02:55:27.773Z,26.7
2019-02-25T02:56:29.931Z,26.9
2019-02-25T02:57:32.109Z,26.8
2019-02-25T02:58:34.048Z,26.7
2019-02-25T02:59:36.480Z,26.8
2019-02-25T03:00:38.643Z,26.7
2019-02-25T03:01:40.791Z,26.8
2019-02-25T03:02:42.932Z,26.9
2019-02-25T03:03:45.358Z,26.8
2019-02-25T03:04:47.795Z,26.6
2019-02-25T03:05:50.222Z,26.7
2019-02-25T03:06:52.645Z,26.7
2019-02-25T03:07:54.797Z,26.9
2019-02-25T03:08:57.225Z,26.9
2019-02-25T03:09:59.716Z,26.7
2019-02-25T03:11:02.228Z,26.8
2019-02-25T03:12:04.077Z,26.9
2019-02-25T03:13:06.518Z,26.9
2019-02-25T03:14:08.941Z,27
2019-02-25T03:15:11.368Z,27.1
2019-02-25T03:16:13.506Z,26.7
2019-02-25T03:17:15.932Z,26.9
2019-02-25T03:18:18.353Z,26.8
2019-02-25T03:19:20.786Z,27.1
2019-02-25T03:20:23.219Z,27
2019-02-25T03:21:25.715Z,26.7
2019-02-25T03:22:27.869Z,27
2019-02-25T03:23:29.726Z,26.9
2019-02-25T03:24:31.877Z,26.8
2019-02-25T03:25:33.756Z,27
2019-02-25T03:26:35.650Z,26.9
2019-02-25T03:27:37.783Z,26.8
2019-02-25T03:28:40.216Z,26.7
2019-02-25T03:29:42.649Z,26.9
2019-02-25T03:30:44.529Z,26.9
2019-02-25T03:31:46.671Z,27
2019-02-25T03:32:49.123Z,27
2019-02-25T03:33:51.583Z,26.9
2019-02-25T03:34:53.495Z,26.8
2019-02-25T03:35:55.631Z,26.9
2019-02-25T03:36:57.525Z,26.9
2019-02-25T03:37:59.954Z,26.8
2019-02-25T03:39:02.379Z,26.8
2019-02-25T03:40:04.538Z,26.9
2019-02-25T03:41:06.961Z,26.9
2019-02-25T03:42:09.102Z,26.8
2019-02-25T03:43:11.531Z,26.9
2019-02-25T03:44:13.695Z,26.9
2019-02-25T03:45:16.119Z,26.8
2019-02-25T03:46:18.541Z,27
2019-02-25T03:47:20.448Z,26.9
2019-02-25T03:48:22.320Z,26.9
2019-02-25T03:49:24.200Z,27
2019-02-25T03:50:26.328Z,26.8
2019-02-25T03:51:28.493Z,26.9
2019-02-25T03:52:30.914Z,26.9
2019-02-25T03:53:32.813Z,26.9
2019-02-25T03:54:34.398Z,27
2019-02-25T03:55:36.563Z,27
2019-02-25T03:56:38.717Z,27.2
2019-02-25T03:57:40.889Z,27
2019-02-25T03:58:43.312Z,27
2019-02-25T03:59:45.189Z,27
2019-02-25T04:00:47.617Z,26.9
2019-02-25T04:01:49.521Z,27
2019-02-25T04:02:51.953Z,26.8
2019-02-25T04:03:54.084Z,26.9
2019-02-25T04:04:56.218Z,27
2019-02-25T04:05:58.118Z,26.7
2019-02-25T04:07:00.017Z,26.9
2019-02-25T04:08:02.166Z,26.7
2019-02-25T04:09:04.589Z,26.7
2019-02-25T04:10:07.040Z,26.7
2019-02-25T04:11:08.898Z,26.7
2019-02-25T04:12:11.048Z,26.8
2019-02-25T04:13:13.482Z,26.7
2019-02-25T04:14:15.342Z,26.7
2019-02-25T04:15:17.509Z,26.6
2019-02-25T04:16:19.653Z,26.7
2019-02-25T04:17:22.142Z,26.6
2019-02-25T04:18:24.581Z,26.7
2019-02-25T04:19:26.742Z,26.6
2019-02-25T04:20:28.908Z,26.5
2019-02-25T04:21:31.401Z,26.6
2019-02-25T04:22:33.820Z,26.7
2019-02-25T04:23:35.966Z,26.3
2019-02-25T04:24:38.390Z,26.5
2019-02-25T04:25:40.530Z,26.2
2019-02-25T04:26:42.661Z,26.6
2019-02-25T04:27:45.096Z,26.5
2019-02-25T04:28:47.262Z,26.6
2019-02-25T04:29:49.681Z,26.5
2019-02-25T04:30:51.851Z,26.5
2019-02-25T04:31:54.305Z,26.5
2019-02-25T04:32:56.740Z,26.4
2019-02-25T04:33:59.191Z,26.5
2019-02-25T04:35:01.613Z,26.5
2019-02-25T04:36:04.056Z,26.3
2019-02-25T04:37:06.488Z,26.4
2019-02-25T04:38:08.923Z,26.3
2019-02-25T04:39:10.774Z,26.6
2019-02-25T04:40:13.194Z,26.5
2019-02-25T04:41:15.060Z,26.3
2019-02-25T04:42:17.206Z,26.4
2019-02-25T04:43:19.354Z,26.5
2019-02-25T04:44:21.789Z,26.4
2019-02-25T04:45:24.219Z,26.2
2019-02-25T04:46:26.646Z,26.4
2019-02-25T04:47:28.523Z,26.1
2019-02-25T04:48:30.945Z,26.6
2019-02-25T04:49:33.368Z,26.3
2019-02-25T04:50:35.520Z,26.3
2019-02-25T04:51:37.956Z,26.5
2019-02-25T04:52:40.375Z,26.5
2019-02-25T04:53:42.790Z,26.2
2019-02-25T04:54:45.216Z,26.6
2019-02-25T04:55:47.099Z,26.2
2019-02-25T04:56:49.538Z,26.4
2019-02-25T04:57:51.704Z,26.5
2019-02-25T04:58:53.846Z,26.3
2019-02-25T04:59:56.274Z,26.2
2019-02-25T05:00:58.414Z,26.4
2019-02-25T05:02:02.307Z,26.5
2019-02-25T05:03:04.276Z,26.4
2019-02-25T05:04:06.429Z,26.3
2019-02-25T05:05:08.881Z,26.4
2019-02-25T05:06:10.739Z,26.2
2019-02-25T05:07:12.893Z,26.4
2019-02-25T05:08:15.320Z,26.4
2019-02-25T05:09:17.497Z,26.2
2019-02-25T05:10:19.923Z,26.5
2019-02-25T05:11:22.359Z,26
2019-02-25T05:12:26.726Z,26.4
2019-02-25T05:13:28.605Z,26.2
2019-02-25T05:14:30.756Z,26.3
2019-02-25T05:15:33.430Z,26.2
2019-02-25T05:16:35.901Z,26
2019-02-25T05:17:42.566Z,26.3
2019-02-25T05:18:45.111Z,26.2
2019-02-25T05:19:47.561Z,26.4
2019-02-25T05:20:49.993Z,26.1
2019-02-25T05:21:52.427Z,26.4
2019-02-25T05:22:54.882Z,25.9
2019-02-25T05:23:57.023Z,26.6
2019-02-25T05:24:59.481Z,26.1
2019-02-25T05:26:01.982Z,26.4
2019-02-25T05:27:04.159Z,26.5
2019-02-25T05:28:06.333Z,26
2019-02-25T05:29:08.533Z,26.3
2019-02-25T05:30:10.999Z,26.1
2019-02-25T05:31:13.466Z,26.4
2019-02-25T05:32:15.637Z,26.2
2019-02-25T05:33:17.563Z,26.4
2019-02-25T05:34:19.837Z,26.1
2019-02-25T05:35:22.031Z,26.2
2019-02-25T05:36:24.480Z,26.4
2019-02-25T05:37:26.609Z,26.2
2019-02-25T05:38:29.043Z,26.1
2019-02-25T05:39:31.189Z,26.4
2019-02-25T05:40:33.631Z,26.1
2019-02-25T05:41:35.818Z,26
2019-02-25T05:42:38.295Z,25.8
2019-02-25T05:43:40.466Z,26.3
2019-02-25T05:44:42.914Z,25.9
2019-02-25T05:45:45.365Z,26.3
2019-02-25T05:46:47.793Z,26
2019-02-25T05:47:49.981Z,26.1
2019-02-25T05:48:52.426Z,26.1
2019-02-25T05:49:54.014Z,26.1
2019-02-25T05:50:56.476Z,26.3
2019-02-25T05:51:58.910Z,26.3
2019-02-25T05:53:01.340Z,26.3
2019-02-25T05:54:03.512Z,26.2
2019-02-25T05:55:05.963Z,26
2019-02-25T05:56:08.390Z,26.2
2019-02-25T05:57:10.276Z,25.9
2019-02-25T05:58:12.444Z,26.1
2019-02-25T05:59:14.948Z,26.3
2019-02-25T06:00:17.380Z,26.5
2019-02-25T06:01:19.821Z,26.3
2019-02-25T06:02:22.264Z,26
2019-02-25T06:03:24.699Z,26.2
2019-02-25T06:04:27.135Z,25.8
2019-02-25T06:05:29.567Z,26
2019-02-25T06:06:31.985Z,26.2
2019-02-25T06:07:34.405Z,26.1
2019-02-25T06:08:36.039Z,26.3
2019-02-25T06:09:38.565Z,26.1
2019-02-25T06:10:41.005Z,26.2
2019-02-25T06:11:42.893Z,26
2019-02-25T06:12:45.059Z,26.1
2019-02-25T06:13:47.225Z,26.3
2019-02-25T06:14:49.359Z,25.9
2019-02-25T06:15:51.805Z,25.9
2019-02-25T06:16:54.269Z,25.9
2019-02-25T06:17:56.413Z,26.2
2019-02-25T06:18:58.859Z,26.1
2019-02-25T06:20:01.024Z,26.1
2019-02-25T06:21:03.458Z,25.9
2019-02-25T06:22:05.357Z,25.8
2019-02-25T06:23:07.793Z,26.3
2019-02-25T06:24:10.255Z,26.2
2019-02-25T06:25:12.129Z,26.3
2019-02-25T06:26:14.407Z,26
2019-02-25T06:27:16.841Z,26.2
2019-02-25T06:28:18.994Z,26
2019-02-25T06:29:21.434Z,26
2019-02-25T06:30:23.901Z,26.3
2019-02-25T06:31:26.324Z,26.1
2019-02-25T06:32:28.485Z,26.1
2019-02-25T06:33:30.637Z,26
2019-02-25T06:34:33.073Z,26.3
2019-02-25T06:35:35.500Z,26.2
2019-02-25T06:36:37.927Z,26.2
2019-02-25T06:37:40.372Z,26
2019-02-25T06:38:42.534Z,26.1
2019-02-25T06:39:44.911Z,26.2
2019-02-25T06:40:47.059Z,26.2
2019-02-25T06:41:48.923Z,26
2019-02-25T06:42:51.080Z,26.2
2019-02-25T06:43:53.243Z,26.2
2019-02-25T06:44:55.409Z,26
2019-02-25T06:45:57.840Z,25.9
2019-02-25T06:47:00.275Z,26.2
2019-02-25T06:48:02.713Z,26
2019-02-25T06:49:04.887Z,26.1
2019-02-25T06:50:07.346Z,26.1
2019-02-25T06:51:09.519Z,26.1
2019-02-25T06:52:11.952Z,26
2019-02-25T06:53:14.381Z,26.1
2019-02-25T06:54:16.811Z,26.1
2019-02-25T06:55:19.244Z,26
2019-02-25T06:56:21.655Z,26.1
2019-02-25T06:57:23.829Z,25.9
2019-02-25T06:58:26.030Z,26.2
2019-02-25T06:59:28.445Z,26.1
2019-02-25T07:00:30.641Z,26.1
2019-02-25T07:01:33.089Z,25.9
2019-02-25T07:02:35.241Z,26.3
2019-02-25T07:03:37.666Z,25.7
2019-02-25T07:04:40.088Z,25.8
2019-02-25T07:05:41.961Z,25.9
2019-02-25T07:06:44.410Z,26
2019-02-25T07:07:46.839Z,26.3
2019-02-25T07:08:49.277Z,26.1
2019-02-25T07:09:51.710Z,26.1
2019-02-25T07:10:53.596Z,26.1
2019-02-25T07:11:55.479Z,26
2019-02-25T07:12:57.623Z,26.2
2019-02-25T07:13:59.789Z,25.9
2019-02-25T07:15:02.223Z,26
2019-02-25T07:16:04.651Z,26.1
2019-02-25T07:17:06.783Z,26
2019-02-25T07:18:09.211Z,26.1
2019-02-25T07:19:11.640Z,25.6
2019-02-25T07:20:14.073Z,25.9
2019-02-25T07:21:15.928Z,26
2019-02-25T07:22:18.361Z,26
2019-02-25T07:23:20.779Z,25.7
2019-02-25T07:24:22.403Z,25.9
2019-02-25T07:25:24.823Z,26
2019-02-25T07:26:27.622Z,26
2019-02-25T07:27:30.110Z,26.1
2019-02-25T07:28:32.539Z,26.2
2019-02-25T07:29:34.973Z,26
2019-02-25T07:30:37.133Z,26.1
2019-02-25T07:31:39.575Z,26
2019-02-25T07:32:41.712Z,25.9
2019-02-25T07:33:44.131Z,26
2019-02-25T07:34:46.561Z,25.9
2019-02-25T07:35:48.707Z,25.9
2019-02-25T07:36:50.929Z,26.1
2019-02-25T07:37:53.053Z,26
2019-02-25T07:38:55.485Z,26
2019-02-25T07:39:57.617Z,26
2019-02-25T07:40:59.778Z,25.9
2019-02-25T07:42:02.207Z,26.1
2019-02-25T07:43:04.632Z,26
2019-02-25T07:44:06.993Z,25.9
2019-02-25T07:45:09.491Z,26
2019-02-25T07:46:11.918Z,25.7
2019-02-25T07:47:14.347Z,26.1
2019-02-25T07:48:16.526Z,26
2019-02-25T07:49:18.958Z,26
2019-02-25T07:50:21.111Z,25.9
2019-02-25T07:51:23.274Z,25.9
2019-02-25T07:52:25.417Z,26.1
2019-02-25T07:53:27.584Z,26.1
2019-02-25T07:54:30.006Z,26.1
2019-02-25T07:55:32.441Z,26
2019-02-25T07:56:34.597Z,25.9
2019-02-25T07:57:37.010Z,26
2019-02-25T07:58:39.222Z,26.1
2019-02-25T07:59:41.382Z,26
2019-02-25T08:00:43.280Z,26.1
2019-02-25T08:01:45.706Z,25.8
2019-02-25T08:02:48.148Z,25.9
2019-02-25T08:03:50.310Z,26.2
2019-02-25T08:04:52.739Z,25.9
2019-02-25T08:05:55.179Z,26
2019-02-25T08:06:57.059Z,25.9
2019-02-25T08:07:59.481Z,26
2019-02-25T08:09:01.683Z,26.1
2019-02-25T08:10:03.274Z,26.1
2019-02-25T08:11:05.679Z,26
2019-02-25T08:12:08.124Z,25.9
2019-02-25T08:13:09.746Z,25.9
2019-02-25T08:14:11.909Z,25.9
2019-02-25T08:15:13.785Z,26.1
2019-02-25T08:16:16.206Z,25.9
2019-02-25T08:17:18.627Z,26
2019-02-25T08:18:20.832Z,26.2
2019-02-25T08:19:22.990Z,26.2
2019-02-25T08:20:25.165Z,26
2019-02-25T08:21:27.602Z,26.2
2019-02-25T08:22:30.019Z,25.8
2019-02-25T08:23:31.889Z,26
2019-02-25T08:24:34.327Z,25.9
2019-02-25T08:25:36.479Z,25.8
2019-02-25T08:26:38.352Z,25.8
2019-02-25T08:27:40.486Z,26.1
2019-02-25T08:28:42.642Z,25.8
2019-02-25T08:29:45.080Z,25.8
2019-02-25T08:30:47.237Z,25.9
2019-02-25T08:31:49.673Z,26.1
2019-02-25T08:32:51.823Z,25.9
2019-02-25T08:33:55.439Z,26
2019-02-25T08:34:57.711Z,25.9
2019-02-25T08:35:59.886Z,25.9
2019-02-25T08:37:02.481Z,26.1
2019-02-25T08:38:04.885Z,25.9
2019-02-25T08:39:06.761Z,25.9
2019-02-25T08:40:09.199Z,26.1
2019-02-25T08:41:13.590Z,26.1
2019-02-25T08:42:15.490Z,26
2019-02-25T08:43:17.921Z,26
2019-02-25T08:44:20.080Z,25.8
2019-02-25T08:45:22.899Z,26
2019-02-25T08:46:25.342Z,26.2
2019-02-25T08:47:27.764Z,25.9
2019-02-25T08:48:29.919Z,26
2019-02-25T08:49:32.063Z,26.1
2019-02-25T08:50:34.251Z,25.9
2019-02-25T08:51:36.681Z,26
2019-02-25T08:52:38.556Z,25.8
2019-02-25T08:53:40.716Z,25.9
2019-02-25T08:54:43.734Z,26.1
2019-02-25T08:55:45.879Z,26.2
2019-02-25T08:56:48.016Z,25.8
2019-02-25T08:57:50.153Z,26
2019-02-25T08:58:52.324Z,26
2019-02-25T08:59:54.760Z,26
2019-02-25T09:00:56.929Z,25.9
2019-02-25T09:01:59.090Z,26
2019-02-25T09:03:01.266Z,25.7
2019-02-25T09:04:03.468Z,26
2019-02-25T09:05:05.887Z,25.9
2019-02-25T09:06:08.319Z,25.8
2019-02-25T09:07:10.489Z,26.1
2019-02-25T09:08:12.933Z,25.9
2019-02-25T09:09:15.360Z,25.8
2019-02-25T09:10:17.521Z,26
2019-02-25T09:11:19.661Z,26
2019-02-25T09:12:22.098Z,25.8
2019-02-25T09:13:24.261Z,25.9
2019-02-25T09:14:26.438Z,25.9
2019-02-25T09:15:28.868Z,25.8
2019-02-25T09:16:33.492Z,25.9
2019-02-25T09:17:35.932Z,25.8
2019-02-25T09:18:38.067Z,26
2019-02-25T09:19:40.502Z,26
2019-02-25T09:20:42.649Z,25.7
2019-02-25T09:21:45.069Z,26
2019-02-25T09:22:47.530Z,26
2019-02-25T09:23:50.514Z,26
2019-02-25T09:24:52.684Z,25.9
2019-02-25T09:25:54.848Z,25.9
2019-02-25T09:26:56.732Z,26.1
2019-02-25T09:27:59.155Z,26
2019-02-25T09:29:01.579Z,25.9
2019-02-25T09:30:04.007Z,25.9
2019-02-25T09:31:06.434Z,26.1
2019-02-25T09:32:08.882Z,26.1
2019-02-25T09:33:11.306Z,25.9
2019-02-25T09:34:13.736Z,26.2
2019-02-25T09:35:15.904Z,25.9
2019-02-25T09:36:18.332Z,26.1
2019-02-25T09:37:20.757Z,26
2019-02-25T09:38:23.690Z,25.9
2019-02-25T09:39:25.610Z,25.8
2019-02-25T09:40:27.196Z,25.9
2019-02-25T09:41:30.383Z,26
2019-02-25T09:42:32.566Z,25.9
2019-02-25T09:43:34.993Z,26
2019-02-25T09:44:38.048Z,25.9
2019-02-25T09:45:40.279Z,26
2019-02-25T09:46:42.707Z,26
2019-02-25T09:47:45.135Z,25.9
2019-02-25T09:48:47.286Z,26
2019-02-25T09:49:50.953Z,26.1
2019-02-25T09:50:53.548Z,25.9
2019-02-25T09:51:55.975Z,25.9
2019-02-25T09:52:58.400Z,25.8
2019-02-25T09:54:00.544Z,26
2019-02-25T09:55:02.706Z,26
2019-02-25T09:56:05.138Z,26
2019-02-25T09:57:07.592Z,26
2019-02-25T09:58:10.029Z,26
2019-02-25T09:59:11.921Z,25.9
2019-02-25T10:00:14.348Z,26.1
2019-02-25T10:01:16.770Z,25.8
2019-02-25T10:02:18.938Z,26.1
2019-02-25T10:03:21.056Z,26
2019-02-25T10:04:23.482Z,26
2019-02-25T10:05:25.625Z,25.9
2019-02-25T10:06:28.064Z,26
2019-02-25T10:07:30.493Z,25.9
2019-02-25T10:08:32.924Z,26.1
2019-02-25T10:09:35.359Z,26
2019-02-25T10:10:37.784Z,26
2019-02-25T10:11:39.967Z,26.1
2019-02-25T10:12:42.138Z,26
2019-02-25T10:13:44.290Z,25.8
2019-02-25T10:14:46.175Z,26
2019-02-25T10:15:50.088Z,26.1
2019-02-25T10:16:53.915Z,26
2019-02-25T10:17:56.464Z,25.9
2019-02-25T10:18:58.905Z,26.1
2019-02-25T10:20:01.338Z,25.9
2019-02-25T10:21:03.508Z,25.9
2019-02-25T10:22:05.669Z,26
2019-02-25T10:23:08.095Z,25.8
2019-02-25T10:24:10.261Z,26
2019-02-25T10:25:12.428Z,25.8
2019-02-25T10:26:14.576Z,25.8
2019-02-25T10:27:16.742Z,26.1
2019-02-25T10:28:18.619Z,25.9
2019-02-25T10:29:21.047Z,26.3
2019-02-25T10:30:23.500Z,25.9
2019-02-25T10:31:25.648Z,26
2019-02-25T10:32:30.167Z,26.1
2019-02-25T10:33:32.111Z,26
2019-02-25T10:34:34.288Z,26
2019-02-25T10:35:36.700Z,25.9
2019-02-25T10:36:38.850Z,26.1
2019-02-25T10:37:41.456Z,25.8
2019-02-25T10:38:45.539Z,25.7
2019-02-25T10:39:49.440Z,26
2019-02-25T10:40:53.866Z,26
2019-02-25T10:41:57.504Z,26
2019-02-25T10:43:01.358Z,26.1
2019-02-25T10:44:04.694Z,26.1
2019-02-25T10:45:08.935Z,26.1
2019-02-25T10:46:15.127Z,26.1
2019-02-25T10:47:19.799Z,26.3
2019-02-25T10:48:23.608Z,26
2019-02-25T10:49:29.302Z,26.2
2019-02-25T10:50:33.452Z,26.2
2019-02-25T10:51:39.250Z,26.1
2019-02-25T10:52:43.325Z,25.9
2019-02-25T10:53:51.523Z,26.2
2019-02-25T10:54:56.182Z,26
2019-02-25T10:56:00.282Z,26
2019-02-25T10:57:02.703Z,26.1
2019-02-25T10:58:05.130Z,26.1
2019-02-25T10:59:08.186Z,25.9
2019-02-25T11:00:11.659Z,26
2019-02-25T11:01:19.357Z,26
2019-02-25T11:02:20.793Z,26.1
2019-02-25T11:03:23.214Z,26
2019-02-25T11:04:26.221Z,25.9
2019-02-25T11:05:30.544Z,25.8
2019-02-25T11:06:35.413Z,26.2
2019-02-25T11:07:39.665Z,26
2019-02-25T11:08:45.549Z,25.9
2019-02-25T11:09:48.620Z,26.2
2019-02-25T11:10:53.224Z,26
2019-02-25T11:11:59.922Z,26.3
2019-02-25T11:13:04.135Z,25.9
2019-02-25T11:14:07.188Z,25.8
2019-02-25T11:15:12.010Z,26.2
2019-02-25T11:16:18.568Z,26.1
2019-02-25T11:17:24.306Z,26.1
2019-02-25T11:18:28.242Z,26.1
2019-02-25T11:19:32.839Z,26.1
2019-02-25T11:20:37.622Z,26.1
2019-02-25T11:21:42.134Z,25.9
2019-02-25T11:22:46.085Z,25.9
2019-02-25T11:23:51.535Z,26.1
2019-02-25T11:24:55.879Z,26
2019-02-25T11:26:00.357Z,26.1
2019-02-25T11:27:05.163Z,26.2
2019-02-25T11:28:20.711Z,26
2019-02-25T11:29:16.196Z,26.1
2019-02-25T11:30:19.294Z,26.1
2019-02-25T11:31:27.238Z,25.8
2019-02-25T11:32:30.468Z,26.1
2019-02-25T11:33:34.338Z,26.1
2019-02-25T11:34:37.661Z,26
2019-02-25T11:35:43.300Z,26.2
2019-02-25T11:36:50.768Z,26.1
2019-02-25T11:37:56.490Z,25.9
2019-02-25T11:39:00.525Z,26.2
2019-02-25T11:40:04.463Z,26
2019-02-25T11:41:08.822Z,25.9
2019-02-25T11:42:15.261Z,25.9
2019-02-25T11:43:18.800Z,26.1
2019-02-25T11:44:23.354Z,26
2019-02-25T11:45:32.246Z,26.1
2019-02-25T11:46:34.135Z,26.1
2019-02-25T11:47:36.281Z,25.9
2019-02-25T11:48:38.153Z,26.1
2019-02-25T11:49:40.585Z,26.1
2019-02-25T11:50:44.746Z,25.9
2019-02-25T11:51:47.252Z,26.1
2019-02-25T11:52:49.678Z,25.9
2019-02-25T11:53:51.835Z,26
2019-02-25T11:54:54.279Z,25.8
2019-02-25T11:55:56.703Z,25.8
2019-02-25T11:56:58.849Z,26.2
2019-02-25T11:58:01.043Z,26
2019-02-25T11:59:03.478Z,25.8
2019-02-25T12:00:05.625Z,26.1
2019-02-25T12:01:07.771Z,26
2019-02-25T12:02:09.371Z,25.9
2019-02-25T12:03:11.511Z,26.2
2019-02-25T12:04:13.970Z,26.3
2019-02-25T12:05:16.389Z,26
2019-02-25T12:06:18.842Z,26
2019-02-25T12:07:21.276Z,26.1
2019-02-25T12:08:23.714Z,26.1
2019-02-25T12:09:26.141Z,26
2019-02-25T12:10:28.308Z,26.1
2019-02-25T12:11:30.463Z,26.1
2019-02-25T12:12:32.894Z,26
2019-02-25T12:13:35.055Z,26.1
2019-02-25T12:14:37.213Z,26.1
2019-02-25T12:15:39.641Z,25.9
2019-02-25T12:16:41.785Z,26
2019-02-25T12:17:43.674Z,26.1
2019-02-25T12:18:46.097Z,25.9
2019-02-25T12:19:48.251Z,26.1
2019-02-25T12:20:49.575Z,26.1
2019-02-25T12:21:52.008Z,26.2
2019-02-25T12:22:54.454Z,26.1
2019-02-25T12:23:56.889Z,26
2019-02-25T12:24:59.318Z,26.1
2019-02-25T12:26:01.814Z,26.1
2019-02-25T12:27:04.260Z,26
2019-02-25T12:28:06.139Z,26
2019-02-25T12:29:10.730Z,26.2
2019-02-25T12:30:13.287Z,26.1
2019-02-25T12:31:15.711Z,26
2019-02-25T12:32:17.875Z,26.2
2019-02-25T12:33:20.026Z,26.2
2019-02-25T12:34:22.494Z,25.8
2019-02-25T12:35:24.932Z,26.3
2019-02-25T12:36:27.082Z,26.1
2019-02-25T12:37:29.228Z,26.2
2019-02-25T12:38:31.393Z,26.3
2019-02-25T12:39:33.291Z,26.2
2019-02-25T12:40:35.721Z,25.8
2019-02-25T12:41:38.182Z,26
2019-02-25T12:42:40.328Z,26.1
2019-02-25T12:43:42.762Z,26
2019-02-25T12:44:45.202Z,26.1
2019-02-25T12:45:47.636Z,26.2
2019-02-25T12:46:50.072Z,26.3
2019-02-25T12:47:52.513Z,26.3
2019-02-25T12:48:54.945Z,25.9
2019-02-25T12:49:57.101Z,26.3
2019-02-25T12:50:59.546Z,26
2019-02-25T12:52:01.992Z,26
2019-02-25T12:53:04.420Z,26.2
2019-02-25T12:54:06.581Z,26.1
2019-02-25T12:55:09.013Z,26.1
2019-02-25T12:56:10.883Z,26
2019-02-25T12:57:12.492Z,26.1
2019-02-25T12:58:14.358Z,26
2019-02-25T12:59:16.781Z,26.1
2019-02-25T13:00:18.946Z,26.1
2019-02-25T13:01:21.096Z,26.1
2019-02-25T13:02:23.556Z,26.2
2019-02-25T13:03:25.982Z,26.1
2019-02-25T13:04:28.147Z,26.1
2019-02-25T13:05:30.301Z,26.1
2019-02-25T13:06:32.448Z,26
2019-02-25T13:07:34.374Z,26.2
2019-02-25T13:08:36.812Z,25.9
2019-02-25T13:09:38.974Z,26.2
2019-02-25T13:10:41.128Z,26
2019-02-25T13:11:43.269Z,26
2019-02-25T13:12:45.433Z,26.1
2019-02-25T13:13:47.881Z,26
2019-02-25T13:14:50.066Z,26.1
2019-02-25T13:15:52.230Z,26.1
2019-02-25T13:16:54.417Z,25.8
2019-02-25T13:17:56.563Z,26
2019-02-25T13:19:01.186Z,26.2
2019-02-25T13:20:03.337Z,26
2019-02-25T13:21:05.501Z,25.9
2019-02-25T13:22:07.667Z,25.9
2019-02-25T13:23:09.828Z,26
2019-02-25T13:24:12.275Z,26.2
2019-02-25T13:25:14.687Z,26
2019-02-25T13:26:16.841Z,26.3
2019-02-25T13:27:18.753Z,26.1
2019-02-25T13:28:21.340Z,25.9
2019-02-25T13:29:29.401Z,25.9
2019-02-25T13:30:31.877Z,25.9
2019-02-25T13:31:33.767Z,25.9
2019-02-25T13:32:35.945Z,26.1
2019-02-25T13:33:38.432Z,25.9
2019-02-25T13:34:40.326Z,25.9
2019-02-25T13:35:42.598Z,25.8
2019-02-25T13:36:45.761Z,25.9
2019-02-25T13:37:47.935Z,26.2
2019-02-25T13:38:49.864Z,25.8
2019-02-25T13:39:51.791Z,26.1
2019-02-25T13:40:54.233Z,25.9
2019-02-25T13:41:56.714Z,25.8
2019-02-25T13:42:58.951Z,26.1
2019-02-25T13:44:01.205Z,25.8
2019-02-25T13:45:03.453Z,26
2019-02-25T13:46:06.567Z,25.9
2019-02-25T13:47:08.810Z,26
2019-02-25T13:48:11.346Z,26
2019-02-25T13:49:13.549Z,26.1
2019-02-25T13:50:16.079Z,25.9
2019-02-25T13:51:18.672Z,25.9
2019-02-25T13:52:21.154Z,26
2019-02-25T13:53:23.682Z,25.8
2019-02-25T13:54:26.227Z,25.9
2019-02-25T13:55:30.380Z,26
2019-02-25T13:56:33.818Z,26
2019-02-25T13:57:36.294Z,26
2019-02-25T13:58:38.740Z,26
2019-02-25T13:59:40.676Z,25.9
2019-02-25T14:00:43.144Z,25.9
2019-02-25T14:01:45.434Z,25.8
2019-02-25T14:02:47.692Z,26
2019-02-25T14:03:49.980Z,25.8